Time;durP1;ratioP1;P1;durP2;ratioP2;P2;SDS_P1;SDS_P2;PMS_P1;PMS_P2;Temp;Humidity;BMP_temperature;BMP_pressure;BME280_temperature;BME280_humidity;BME280_pressure;Samples;Min_cycle;Max_cycle;Signal;HPM_P1;HPM_P2
2024/01/31 00:00:19;;;;;;;8.27;0.80;;;5.80;99.90;;;;;;5088364;28;20485;-77
2024/01/31 00:02:45;;;;;;;7.63;1.08;;;5.80;99.80;;;;;;5086471;28;20441;-77
2024/01/31 00:05:14;;;;;;;9.05;1.25;;;5.80;99.70;;;;;;5088068;28;20966;-77
2024/01/31 00:07:42;;;;;;;4.82;0.70;;;5.80;99.40;;;;;;5085430;28;20390;-77
2024/01/31 00:10:09;;;;;;;5.05;0.50;;;5.80;99.10;;;;;;5076700;28;20396;-77
2024/01/31 00:12:34;;;;;;;6.25;0.70;;;5.80;98.80;;;;;;5082292;28;20987;-77
2024/01/31 00:15:00;;;;;;;6.20;0.80;;;5.90;98.50;;;;;;5086026;28;20485;-77
2024/01/31 00:17:25;;;;;;;7.73;0.60;;;5.80;98.00;;;;;;5083092;28;20394;-77
2024/01/31 00:19:51;;;;;;;5.22;0.55;;;5.90;98.00;;;;;;5086427;28;20437;-77
2024/01/31 00:22:16;;;;;;;5.87;0.70;;;5.90;97.50;;;;;;5082749;28;20759;-77
2024/01/31 00:24:42;;;;;;;8.95;0.90;;;5.90;96.80;;;;;;5085867;28;20458;-77
2024/01/31 00:27:08;;;;;;;5.93;0.65;;;5.90;96.90;;;;;;5079334;28;20414;-77
2024/01/31 00:29:33;;;;;;;3.73;0.67;;;5.90;95.80;;;;;;5081704;28;20440;-77
2024/01/31 00:31:59;;;;;;;4.53;0.88;;;6.00;94.90;;;;;;5089125;28;21236;-77
2024/01/31 00:34:24;;;;;;;6.80;0.70;;;6.00;93.60;;;;;;5086905;28;20406;-77
2024/01/31 00:36:50;;;;;;;5.95;0.73;;;6.00;92.50;;;;;;5087331;28;20565;-77
2024/01/31 00:39:16;;;;;;;9.00;1.00;;;6.00;91.00;;;;;;5086631;28;20409;-77
2024/01/31 00:41:41;;;;;;;8.70;0.90;;;6.00;90.70;;;;;;5087388;28;20513;-77
2024/01/31 00:44:07;;;;;;;5.15;0.80;;;6.00;88.10;;;;;;5076657;28;20437;-77
2024/01/31 00:46:32;;;;;;;5.30;0.67;;;6.10;87.80;;;;;;5086080;28;20410;-77
2024/01/31 00:48:58;;;;;;;4.82;0.50;;;6.00;86.60;;;;;;5088984;28;20412;-77
2024/01/31 00:51:23;;;;;;;7.23;0.70;;;6.00;86.40;;;;;;5085962;28;20406;-77
2024/01/31 00:53:49;;;;;;;6.70;0.80;;;6.00;86.40;;;;;;5087133;28;20832;-77
2024/01/31 00:56:15;;;;;;;7.27;0.73;;;6.00;84.60;;;;;;5080694;28;20543;-77
2024/01/31 00:58:40;;;;;;;9.20;1.03;;;6.10;85.60;;;;;;5079618;28;20806;-77
2024/01/31 01:01:06;;;;;;;9.05;1.10;;;6.00;86.00;;;;;;5084702;28;20422;-77
2024/01/31 01:03:31;;;;;;;6.60;0.70;;;6.10;84.70;;;;;;5086748;28;20433;-77
2024/01/31 01:05:57;;;;;;;6.30;0.80;;;6.00;84.30;;;;;;5080611;28;20507;-77
2024/01/31 01:08:23;;;;;;;7.50;1.10;;;6.00;82.80;;;;;;5084958;28;20401;-77
2024/01/31 01:10:48;;;;;;;8.32;1.33;;;6.10;79.40;;;;;;5079629;28;20419;-77
2024/01/31 01:13:14;;;;;;;7.07;0.70;;;6.10;79.80;;;;;;5077248;28;20440;-77
2024/01/31 01:15:40;;;;;;;5.27;0.63;;;6.10;80.90;;;;;;5081609;28;20435;-78
2024/01/31 01:18:05;;;;;;;9.55;1.00;;;6.10;80.80;;;;;;5084976;28;20759;-77
2024/01/31 01:20:31;;;;;;;8.03;1.00;;;6.10;82.60;;;;;;5081151;28;20427;-77
2024/01/31 01:22:56;;;;;;;6.05;0.95;;;6.10;83.90;;;;;;5084040;28;20865;-77
2024/01/31 01:25:22;;;;;;;8.97;1.10;;;6.00;84.80;;;;;;5080556;28;20465;-77
2024/01/31 01:27:50;;;;;;;7.30;1.10;;;6.10;86.00;;;;;;5065633;28;20401;-77
2024/01/31 01:30:20;;;;;;;7.28;0.80;;;6.00;85.50;;;;;;5066553;28;20406;-77
2024/01/31 01:32:46;;;;;;;9.98;0.95;;;6.00;86.00;;;;;;5079136;28;20402;-77
2024/01/31 01:35:13;;;;;;;11.67;1.27;;;6.00;86.00;;;;;;5085959;28;20851;-77
2024/01/31 01:37:39;;;;;;;8.55;0.73;;;6.00;85.40;;;;;;5087840;28;20462;-77
2024/01/31 01:40:06;;;;;;;8.63;1.30;;;6.00;85.10;;;;;;5086091;28;20418;-77
2024/01/31 01:42:31;;;;;;;8.45;0.90;;;6.00;83.90;;;;;;5087453;28;20408;-77
2024/01/31 01:44:57;;;;;;;8.07;1.07;;;6.00;80.00;;;;;;5073636;28;20393;-77
2024/01/31 01:47:24;;;;;;;6.63;1.13;;;6.00;76.60;;;;;;5087129;28;20410;-75
2024/01/31 01:49:49;;;;;;;7.18;1.27;;;6.00;70.40;;;;;;5085045;28;20429;-76
2024/01/31 01:52:16;;;;;;;8.43;1.00;;;6.00;69.20;;;;;;5087292;28;20433;-76
2024/01/31 01:54:41;;;;;;;6.87;1.03;;;6.00;71.00;;;;;;5086692;28;20394;-76
2024/01/31 01:57:08;;;;;;;5.70;0.77;;;6.00;70.90;;;;;;5086898;28;20390;-76
2024/01/31 01:59:35;;;;;;;7.10;0.88;;;6.00;70.50;;;;;;5067585;28;20489;-75
2024/01/31 02:02:01;;;;;;;7.30;0.83;;;6.00;70.10;;;;;;5087315;28;20398;-76
2024/01/31 02:04:28;;;;;;;6.75;0.88;;;6.00;69.00;;;;;;5072329;28;20741;-76
2024/01/31 02:06:54;;;;;;;8.63;1.00;;;6.00;68.50;;;;;;5085553;28;20394;-76
2024/01/31 02:09:20;;;;;;;7.38;0.70;;;5.90;67.50;;;;;;5081365;28;20462;-76
2024/01/31 02:11:46;;;;;;;4.55;0.70;;;5.90;65.80;;;;;;5084936;28;21280;-77
2024/01/31 02:14:11;;;;;;;6.40;0.70;;;5.90;65.80;;;;;;5082725;28;20417;-76
2024/01/31 02:16:37;;;;;;;6.83;0.80;;;5.80;65.60;;;;;;5072956;28;20499;-76
2024/01/31 02:19:02;;;;;;;9.70;0.65;;;5.70;66.30;;;;;;5079856;28;20410;-76
2024/01/31 02:21:29;;;;;;;5.87;0.73;;;5.70;67.00;;;;;;5082724;28;20434;-76
2024/01/31 02:23:54;;;;;;;7.93;0.87;;;5.50;68.60;;;;;;5070404;28;20455;-76
2024/01/31 02:26:20;;;;;;;7.50;0.68;;;5.50;69.80;;;;;;5083853;28;20496;-76
2024/01/31 02:28:46;;;;;;;5.05;0.90;;;5.50;70.60;;;;;;5058782;28;20412;-76
2024/01/31 02:31:11;;;;;;;5.67;0.57;;;5.40;71.70;;;;;;5086217;28;20406;-76
2024/01/31 02:33:37;;;;;;;6.32;0.70;;;5.40;72.80;;;;;;5085118;28;20406;-76
2024/01/31 02:36:02;;;;;;;8.30;0.70;;;5.40;73.60;;;;;;5086807;28;20414;-76
2024/01/31 02:38:28;;;;;;;5.18;0.60;;;5.40;73.90;;;;;;5083273;28;20405;-76
2024/01/31 02:40:54;;;;;;;6.17;0.87;;;5.40;73.80;;;;;;5086450;28;20496;-76
2024/01/31 02:43:19;;;;;;;4.80;0.60;;;5.40;73.70;;;;;;5070610;28;20513;-76
2024/01/31 02:45:45;;;;;;;6.07;0.80;;;5.40;74.50;;;;;;5085909;28;20406;-76
2024/01/31 02:48:10;;;;;;;7.47;1.00;;;5.40;73.50;;;;;;5083444;28;20409;-76
2024/01/31 02:50:36;;;;;;;5.78;0.70;;;5.40;74.20;;;;;;5084711;28;20401;-76
2024/01/31 02:53:01;;;;;;;7.50;0.70;;;5.40;73.20;;;;;;5079228;28;20490;-76
2024/01/31 02:55:27;;;;;;;5.93;0.85;;;5.40;72.10;;;;;;5078010;28;20539;-76
2024/01/31 02:57:53;;;;;;;7.23;0.60;;;5.40;73.40;;;;;;5079453;28;20400;-76
2024/01/31 03:00:19;;;;;;;5.53;0.50;;;5.30;72.00;;;;;;5081363;28;20422;-76
2024/01/31 03:02:44;;;;;;;7.43;0.80;;;5.30;70.90;;;;;;5087746;28;20406;-76
2024/01/31 03:05:11;;;;;;;6.70;0.70;;;5.30;73.10;;;;;;5089132;28;20923;-75
2024/01/31 03:07:37;;;;;;;5.47;0.70;;;5.20;73.30;;;;;;5085593;28;20409;-75
2024/01/31 03:10:03;;;;;;;9.48;1.73;;;5.20;74.00;;;;;;5089177;28;20405;-75
2024/01/31 03:12:28;;;;;;;6.18;0.95;;;5.20;74.80;;;;;;5075852;28;20409;-75
2024/01/31 03:14:54;;;;;;;5.73;0.70;;;5.20;75.50;;;;;;5069560;28;20777;-76
2024/01/31 03:17:20;;;;;;;7.57;0.60;;;5.10;75.80;;;;;;5072782;28;20404;-76
2024/01/31 03:19:45;;;;;;;5.18;0.70;;;5.10;77.20;;;;;;5069668;28;20769;-75
2024/01/31 03:22:11;;;;;;;5.70;0.70;;;5.10;76.90;;;;;;5077478;28;20408;-76
2024/01/31 03:24:38;;;;;;;5.90;0.68;;;5.10;77.60;;;;;;5085197;28;20398;-75
2024/01/31 03:27:04;;;;;;;6.28;0.80;;;5.10;78.30;;;;;;5088330;28;20417;-76
2024/01/31 03:29:29;;;;;;;6.50;0.70;;;5.10;78.60;;;;;;5084267;28;20398;-75
2024/01/31 03:31:55;;;;;;;4.57;0.80;;;5.00;79.00;;;;;;5077180;28;21163;-76
2024/01/31 03:34:20;;;;;;;6.40;0.80;;;5.10;79.90;;;;;;5085575;28;20401;-76
2024/01/31 03:36:46;;;;;;;5.22;0.40;;;5.00;79.80;;;;;;5088559;28;20390;-75
2024/01/31 03:39:12;;;;;;;4.17;0.60;;;5.00;79.90;;;;;;5087576;28;20436;-76
2024/01/31 03:41:44;;;;;;;5.13;0.80;;;5.10;80.40;;;;;;5082433;28;20427;-76
2024/01/31 03:44:09;;;;;;;5.95;0.80;;;5.00;80.00;;;;;;5070370;28;20415;-75
2024/01/31 03:46:35;;;;;;;4.97;0.37;;;5.10;80.40;;;;;;5075855;28;20398;-76
2024/01/31 03:49:01;;;;;;;4.87;0.70;;;5.00;80.40;;;;;;5070079;28;20947;-76
2024/01/31 03:51:26;;;;;;;6.03;0.50;;;5.00;81.50;;;;;;5081788;28;20497;-76
2024/01/31 03:53:52;;;;;;;5.00;0.50;;;5.00;81.10;;;;;;5088773;28;20401;-76
2024/01/31 03:56:18;;;;;;;6.50;0.88;;;5.00;81.50;;;;;;5074443;28;20408;-76
2024/01/31 03:58:44;;;;;;;6.22;0.90;;;5.10;81.50;;;;;;5088722;28;20408;-76
2024/01/31 04:01:15;;;;;;;5.18;0.60;;;5.10;81.80;;;;;;5085035;28;20438;-75
2024/01/31 04:03:43;;;;;;;6.30;0.73;;;5.10;81.90;;;;;;5088348;28;20932;-76
2024/01/31 04:06:09;;;;;;;7.10;0.70;;;5.10;82.00;;;;;;5085502;28;20407;-76
2024/01/31 04:08:35;;;;;;;4.13;0.75;;;5.10;81.70;;;;;;5078214;28;20756;-76
2024/01/31 04:11:00;;;;;;;6.15;0.70;;;5.10;81.50;;;;;;5085802;28;20428;-76
2024/01/31 04:13:26;;;;;;;7.50;0.93;;;5.10;81.90;;;;;;5088101;28;20400;-76
2024/01/31 04:15:52;;;;;;;7.22;0.90;;;5.10;81.80;;;;;;5086204;28;20404;-76
2024/01/31 04:18:18;;;;;;;6.50;0.85;;;5.10;82.20;;;;;;5087966;28;20526;-76
2024/01/31 04:20:43;;;;;;;7.83;0.90;;;5.10;81.80;;;;;;5085057;28;20459;-76
2024/01/31 04:23:09;;;;;;;5.20;0.50;;;5.10;81.60;;;;;;5077108;28;20406;-76
2024/01/31 04:25:35;;;;;;;6.03;0.80;;;5.10;81.20;;;;;;5087558;28;20490;-76
2024/01/31 04:28:00;;;;;;;5.80;0.90;;;5.10;81.10;;;;;;5081029;28;20400;-76
2024/01/31 04:30:26;;;;;;;5.77;0.50;;;5.20;80.70;;;;;;5082694;28;21056;-76
2024/01/31 04:32:52;;;;;;;6.47;0.73;;;5.10;81.00;;;;;;5088413;28;20425;-76
2024/01/31 04:35:18;;;;;;;6.53;1.00;;;5.20;80.40;;;;;;5087131;28;20408;-76
2024/01/31 04:37:43;;;;;;;5.13;0.50;;;5.10;80.30;;;;;;5088456;28;20814;-76
2024/01/31 04:40:10;;;;;;;6.90;0.90;;;5.20;80.20;;;;;;5086038;28;20476;-76
2024/01/31 04:42:36;;;;;;;7.45;0.75;;;5.10;78.90;;;;;;5087885;28;20442;-76
2024/01/31 04:45:02;;;;;;;6.20;1.15;;;5.10;79.10;;;;;;5072844;28;20432;-76
2024/01/31 04:47:27;;;;;;;8.03;0.80;;;5.10;79.40;;;;;;5067964;28;20974;-76
2024/01/31 04:49:56;;;;;;;8.03;0.90;;;5.10;79.10;;;;;;5078431;28;20394;-76
2024/01/31 04:52:22;;;;;;;6.70;0.90;;;5.10;78.50;;;;;;5085470;28;20409;-76
2024/01/31 04:54:47;;;;;;;6.90;1.00;;;5.00;78.50;;;;;;5081910;28;20410;-76
2024/01/31 04:57:13;;;;;;;7.63;0.82;;;5.00;78.50;;;;;;5083526;28;20398;-76
2024/01/31 04:59:39;;;;;;;7.55;0.80;;;5.00;78.20;;;;;;5080612;28;20404;-76
2024/01/31 05:02:06;;;;;;;6.53;0.90;;;4.90;78.00;;;;;;5083660;28;20402;-76
2024/01/31 05:04:33;;;;;;;7.13;0.90;;;4.80;77.40;;;;;;5080881;28;20416;-76
2024/01/31 05:06:58;;;;;;;5.72;0.90;;;4.70;77.00;;;;;;5083623;28;20429;-76
2024/01/31 05:09:24;;;;;;;7.05;0.80;;;4.60;77.10;;;;;;5080336;28;20900;-76
2024/01/31 05:11:50;;;;;;;6.33;0.67;;;4.60;78.20;;;;;;5082272;28;20745;-77
2024/01/31 05:14:16;;;;;;;6.57;1.17;;;4.60;78.30;;;;;;5070816;28;20392;-76
2024/01/31 05:16:42;;;;;;;6.88;1.08;;;4.50;78.30;;;;;;5082104;28;20394;-76
2024/01/31 05:19:11;;;;;;;6.77;0.90;;;4.40;78.80;;;;;;5077878;28;20391;-76
2024/01/31 05:21:46;;;;;;;6.25;0.57;;;4.30;78.60;;;;;;5075857;28;20473;-76
2024/01/31 05:24:16;;;;;;;7.55;0.82;;;4.30;78.90;;;;;;5082490;28;20403;-76
2024/01/31 05:26:43;;;;;;;6.90;0.70;;;4.20;79.60;;;;;;5087083;28;20784;-76
2024/01/31 05:29:09;;;;;;;8.13;0.70;;;4.10;80.60;;;;;;5085062;28;20819;-76
2024/01/31 05:31:35;;;;;;;7.90;0.80;;;4.10;80.90;;;;;;5086630;28;20398;-76
2024/01/31 05:34:01;;;;;;;5.83;0.97;;;4.10;81.70;;;;;;5067258;28;20436;-76
2024/01/31 05:36:26;;;;;;;5.47;0.57;;;4.00;82.50;;;;;;5086471;28;20581;-77
2024/01/31 05:38:52;;;;;;;6.97;0.70;;;4.00;83.50;;;;;;5081774;28;20770;-76
2024/01/31 05:41:18;;;;;;;9.47;1.47;;;4.00;84.60;;;;;;5085362;28;20425;-76
2024/01/31 05:43:45;;;;;;;5.68;0.75;;;4.00;85.20;;;;;;5081057;28;20407;-76
2024/01/31 05:46:10;;;;;;;5.65;0.80;;;4.00;86.00;;;;;;5085742;28;20918;-77
2024/01/31 05:48:36;;;;;;;6.70;1.00;;;4.00;86.40;;;;;;5083576;28;20407;-76
2024/01/31 05:51:02;;;;;;;4.87;0.60;;;4.00;86.90;;;;;;5084842;28;20829;-76
2024/01/31 05:53:27;;;;;;;5.57;1.05;;;4.00;87.20;;;;;;5080492;28;20496;-76
2024/01/31 05:55:53;;;;;;;6.18;0.65;;;4.00;87.70;;;;;;5083904;28;20436;-78
2024/01/31 05:58:18;;;;;;;4.07;0.60;;;4.00;87.80;;;;;;5081571;28;20793;-77
2024/01/31 06:00:49;;;;;;;5.40;0.73;;;4.00;88.00;;;;;;5084846;28;20520;-76
2024/01/31 06:03:15;;;;;;;8.20;0.75;;;4.00;88.20;;;;;;5081398;28;20757;-76
2024/01/31 06:05:41;;;;;;;9.20;1.00;;;4.00;89.30;;;;;;5085409;28;20479;-76
2024/01/31 06:08:07;;;;;;;5.60;0.60;;;4.00;89.80;;;;;;5078733;28;20403;-75
2024/01/31 06:10:32;;;;;;;6.50;0.80;;;4.00;90.00;;;;;;5075480;28;20477;-76
2024/01/31 06:12:58;;;;;;;6.18;0.80;;;4.00;90.30;;;;;;5069940;28;20399;-76
2024/01/31 06:15:25;;;;;;;6.47;0.80;;;4.00;90.50;;;;;;5083502;28;20390;-76
2024/01/31 06:17:51;;;;;;;5.45;1.08;;;4.00;90.60;;;;;;5078633;28;20486;-76
2024/01/31 06:20:17;;;;;;;6.13;0.80;;;4.10;90.80;;;;;;5075593;28;20524;-76
2024/01/31 06:22:42;;;;;;;3.92;0.70;;;4.10;90.90;;;;;;5071946;28;21185;-76
2024/01/31 06:25:08;;;;;;;6.80;0.90;;;4.10;91.00;;;;;;5086201;28;20412;-76
2024/01/31 06:27:35;;;;;;;3.83;0.50;;;4.10;91.20;;;;;;5084497;28;20767;-76
2024/01/31 06:30:01;;;;;;;3.72;0.68;;;4.10;91.30;;;;;;5085836;28;20437;-76
2024/01/31 06:32:32;;;;;;;5.72;0.82;;;4.20;91.40;;;;;;5084370;28;20808;-76
2024/01/31 06:35:01;;;;;;;4.53;0.82;;;4.20;91.30;;;;;;5090351;28;20394;-76
2024/01/31 06:37:27;;;;;;;4.18;0.75;;;4.20;91.40;;;;;;5086333;28;20409;-76
2024/01/31 06:39:54;;;;;;;5.22;0.70;;;4.30;91.40;;;;;;5088258;28;20406;-77
2024/01/31 06:42:20;;;;;;;4.63;0.73;;;4.30;91.40;;;;;;5086559;28;20394;-77
2024/01/31 06:44:45;;;;;;;5.55;0.73;;;4.30;91.40;;;;;;5087880;28;20914;-76
2024/01/31 06:47:11;;;;;;;6.07;0.90;;;4.30;91.40;;;;;;5074439;28;20917;-77
2024/01/31 06:49:36;;;;;;;6.15;1.00;;;4.30;91.40;;;;;;5061755;28;20423;-76
2024/01/31 06:52:02;;;;;;;6.40;1.00;;;4.40;91.50;;;;;;5083636;28;20429;-76
2024/01/31 06:54:28;;;;;;;5.53;0.90;;;4.40;91.50;;;;;;5087154;28;21051;-76
2024/01/31 06:56:53;;;;;;;4.90;0.80;;;4.40;91.50;;;;;;5083899;28;20406;-76
2024/01/31 06:59:19;;;;;;;5.50;0.60;;;4.50;91.40;;;;;;5086959;28;20879;-76
2024/01/31 07:01:45;;;;;;;3.23;0.70;;;4.50;91.20;;;;;;5083026;28;20469;-76
2024/01/31 07:04:10;;;;;;;6.28;0.90;;;4.50;91.10;;;;;;5086643;28;20418;-76
2024/01/31 07:06:36;;;;;;;7.07;1.30;;;4.50;91.00;;;;;;5083565;28;20431;-76
2024/01/31 07:09:02;;;;;;;7.95;1.20;;;4.50;90.80;;;;;;5078082;28;20483;-76
2024/01/31 07:11:27;;;;;;;5.60;0.80;;;4.60;90.70;;;;;;5070475;28;20414;-76
2024/01/31 07:13:53;;;;;;;3.70;0.60;;;4.60;90.70;;;;;;5080999;28;20743;-76
2024/01/31 07:16:19;;;;;;;8.15;1.30;;;4.60;90.60;;;;;;5082580;28;20426;-76
2024/01/31 07:18:45;;;;;;;7.22;0.73;;;4.60;90.60;;;;;;5086967;28;20406;-76
2024/01/31 07:21:11;;;;;;;5.60;1.00;;;4.60;90.50;;;;;;5079816;28;20454;-76
2024/01/31 07:23:37;;;;;;;5.22;0.93;;;4.60;90.60;;;;;;5082535;28;20405;-76
2024/01/31 07:26:03;;;;;;;5.57;0.90;;;4.60;90.60;;;;;;5087594;28;20474;-76
2024/01/31 07:28:33;;;;;;;6.55;1.10;;;4.60;90.70;;;;;;5088939;28;20422;-76
2024/01/31 07:31:02;;;;;;;6.45;1.30;;;4.60;90.60;;;;;;5087038;28;20402;-75
2024/01/31 07:33:28;;;;;;;6.72;2.42;;;4.60;90.50;;;;;;5076720;28;20411;-76
2024/01/31 07:35:53;;;;;;;10.40;3.40;;;4.70;90.40;;;;;;5087084;28;20912;-76
2024/01/31 07:38:20;;;;;;;11.80;4.63;;;4.70;90.30;;;;;;5087951;28;20398;-76
2024/01/31 07:40:45;;;;;;;9.15;3.08;;;4.70;90.20;;;;;;5086295;28;20829;-76
2024/01/31 07:43:11;;;;;;;9.95;4.63;;;4.70;90.00;;;;;;5087284;28;20397;-76
2024/01/31 07:45:37;;;;;;;10.95;2.40;;;4.70;89.70;;;;;;5085195;28;20789;-76
2024/01/31 07:48:03;;;;;;;7.60;1.73;;;4.70;89.80;;;;;;5086768;28;20767;-76
2024/01/31 07:50:28;;;;;;;6.45;1.48;;;4.70;89.60;;;;;;5065569;28;20405;-76
2024/01/31 07:52:54;;;;;;;7.35;1.55;;;4.70;89.50;;;;;;5085362;28;20510;-76
2024/01/31 07:55:20;;;;;;;6.33;1.00;;;4.80;89.50;;;;;;5084051;28;20398;-76
2024/01/31 07:57:45;;;;;;;10.13;1.53;;;4.80;89.50;;;;;;5086203;28;20771;-76
2024/01/31 08:00:12;;;;;;;7.63;1.27;;;4.80;89.30;;;;;;5083039;28;20819;-76
2024/01/31 08:02:37;;;;;;;9.65;1.02;;;4.80;89.10;;;;;;5075062;28;20414;-76
2024/01/31 08:05:03;;;;;;;8.50;1.10;;;4.80;89.10;;;;;;5083236;28;20406;-76
2024/01/31 08:07:29;;;;;;;6.78;0.90;;;4.80;88.80;;;;;;5083986;28;20410;-76
2024/01/31 08:09:54;;;;;;;7.53;1.13;;;4.90;88.90;;;;;;5082243;28;20394;-76
2024/01/31 08:12:20;;;;;;;8.55;1.20;;;4.90;88.30;;;;;;5074757;28;20399;-76
2024/01/31 08:14:46;;;;;;;10.10;1.17;;;4.90;88.00;;;;;;5082923;28;20978;-76
2024/01/31 08:17:11;;;;;;;6.05;0.93;;;4.90;87.80;;;;;;5084333;28;20413;-76
2024/01/31 08:19:37;;;;;;;8.30;1.00;;;4.90;87.50;;;;;;5080402;28;20412;-76
2024/01/31 08:22:03;;;;;;;8.03;0.90;;;5.00;87.50;;;;;;5074653;28;20428;-76
2024/01/31 08:24:29;;;;;;;6.13;1.00;;;5.00;85.80;;;;;;5085992;28;20406;-76
2024/01/31 08:26:55;;;;;;;4.75;0.80;;;5.00;85.50;;;;;;5087418;28;20913;-76
2024/01/31 08:29:20;;;;;;;8.10;1.23;;;5.00;85.00;;;;;;5084888;28;20748;-76
2024/01/31 08:31:46;;;;;;;7.30;1.15;;;5.00;83.30;;;;;;5088086;28;20409;-76
2024/01/31 08:34:12;;;;;;;4.63;1.17;;;5.10;83.20;;;;;;5084458;28;20416;-77
2024/01/31 08:36:38;;;;;;;8.60;1.20;;;5.10;82.30;;;;;;5075299;28;20407;-76
2024/01/31 08:39:04;;;;;;;8.93;1.33;;;5.10;81.40;;;;;;5083662;28;20402;-77
2024/01/31 08:41:29;;;;;;;5.10;1.15;;;5.10;81.30;;;;;;5086054;28;20820;-76
2024/01/31 08:43:55;;;;;;;4.70;1.30;;;5.10;80.10;;;;;;5082299;28;20975;-76
2024/01/31 08:46:20;;;;;;;6.80;1.50;;;5.20;79.90;;;;;;5084819;28;20398;-76
2024/01/31 08:48:46;;;;;;;6.22;1.48;;;5.20;80.00;;;;;;5074576;28;20413;-76
2024/01/31 08:51:14;;;;;;;5.70;1.10;;;5.20;78.30;;;;;;5075760;28;20411;-76
2024/01/31 08:53:42;;;;;;;4.68;1.40;;;5.30;79.40;;;;;;5078812;28;20796;-77
2024/01/31 08:56:09;;;;;;;8.82;1.83;;;5.30;79.80;;;;;;5079664;28;20394;-76
2024/01/31 08:58:34;;;;;;;6.45;1.63;;;5.30;79.10;;;;;;5080093;28;20415;-76
2024/01/31 09:01:00;;;;;;;6.28;1.50;;;5.40;78.50;;;;;;5085096;28;20434;-76
2024/01/31 09:03:26;;;;;;;7.03;1.87;;;5.40;77.90;;;;;;5077818;28;20407;-76
2024/01/31 09:05:52;;;;;;;8.45;1.60;;;5.40;77.20;;;;;;5077989;28;20401;-76
2024/01/31 09:08:18;;;;;;;6.68;1.52;;;5.40;76.60;;;;;;5078034;28;20446;-76
2024/01/31 09:10:45;;;;;;;7.57;2.05;;;5.40;75.30;;;;;;5067672;28;20415;-76
2024/01/31 09:13:10;;;;;;;5.28;1.52;;;5.50;75.50;;;;;;5082000;28;20406;-76
2024/01/31 09:15:36;;;;;;;6.03;1.60;;;5.50;75.10;;;;;;5083955;28;20396;-76
2024/01/31 09:18:03;;;;;;;3.92;1.40;;;5.50;75.60;;;;;;5078924;28;20840;-76
2024/01/31 09:20:29;;;;;;;6.65;1.60;;;5.60;73.70;;;;;;5073295;28;20431;-76
2024/01/31 09:22:54;;;;;;;7.10;1.88;;;5.60;71.60;;;;;;5066237;28;20476;-76
2024/01/31 09:25:20;;;;;;;6.70;2.17;;;5.70;72.80;;;;;;5079164;28;20398;-76
2024/01/31 09:27:46;;;;;;;5.30;1.70;;;5.70;71.30;;;;;;5083205;28;21024;-76
2024/01/31 09:30:12;;;;;;;5.95;2.40;;;5.80;71.20;;;;;;5085713;28;20394;-76
2024/01/31 09:32:37;;;;;;;5.60;2.17;;;5.90;68.10;;;;;;5084078;28;21216;-76
2024/01/31 09:35:03;;;;;;;6.60;2.20;;;5.90;69.00;;;;;;5085082;28;20455;-76
2024/01/31 09:37:32;;;;;;;7.65;2.85;;;6.00;66.80;;;;;;5083221;28;20410;-76
2024/01/31 09:39:57;;;;;;;5.05;2.25;;;6.00;64.30;;;;;;5084350;28;20986;-76
2024/01/31 09:42:23;;;;;;;5.77;2.50;;;6.00;66.80;;;;;;5083852;28;20410;-76
2024/01/31 09:44:50;;;;;;;5.60;2.80;;;6.00;64.80;;;;;;5084163;28;20438;-76
2024/01/31 09:47:17;;;;;;;7.18;2.50;;;6.00;63.60;;;;;;5081772;28;20955;-76
2024/01/31 09:49:42;;;;;;;5.78;2.65;;;6.10;63.20;;;;;;5082130;28;20401;-76
2024/01/31 09:52:13;;;;;;;5.53;2.90;;;6.10;66.00;;;;;;5071446;28;20394;-76
2024/01/31 09:54:42;;;;;;;6.55;3.10;;;6.10;61.60;;;;;;5081846;28;20495;-76
2024/01/31 09:57:08;;;;;;;5.63;3.13;;;6.10;61.60;;;;;;5082026;28;20436;-76
2024/01/31 09:59:34;;;;;;;5.88;3.45;;;6.10;62.00;;;;;;5079814;28;20405;-75
2024/01/31 10:02:01;;;;;;;7.05;3.40;;;6.10;61.50;;;;;;5080547;28;20927;-77
2024/01/31 10:04:27;;;;;;;6.05;3.40;;;6.00;60.00;;;;;;5080202;28;20410;-77
2024/01/31 10:06:53;;;;;;;5.90;3.80;;;6.00;59.30;;;;;;5080162;28;20406;-77
2024/01/31 10:09:18;;;;;;;6.25;3.80;;;6.10;60.20;;;;;;5079629;28;20505;-77
2024/01/31 10:11:47;;;;;;;7.82;3.88;;;6.00;58.50;;;;;;5078866;28;20402;-77
2024/01/31 10:14:13;;;;;;;6.63;3.40;;;6.00;59.00;;;;;;5078593;28;20418;-77
2024/01/31 10:16:39;;;;;;;6.63;4.50;;;6.00;59.60;;;;;;5078913;28;20573;-77
2024/01/31 10:19:05;;;;;;;6.32;4.80;;;6.10;56.40;;;;;;5078829;28;20841;-77
2024/01/31 10:21:32;;;;;;;7.70;5.03;;;6.10;55.70;;;;;;5066603;28;20522;-77
2024/01/31 10:24:02;;;;;;;6.72;5.40;;;6.10;44.70;;;;;;5078100;28;20477;-77
2024/01/31 10:26:28;;;;;;;8.88;5.72;;;6.10;43.10;;;;;;5078261;28;20412;-77
2024/01/31 10:28:57;;;;;;;8.00;5.55;;;6.10;46.50;;;;;;5080712;28;20447;-77
2024/01/31 10:31:22;;;;;;;9.88;6.38;;;6.10;43.10;;;;;;5086238;28;20406;-77
2024/01/31 10:33:49;;;;;;;9.48;6.10;;;6.10;36.70;;;;;;5083227;28;20427;-77
2024/01/31 10:36:18;;;;;;;7.95;6.10;;;6.20;41.60;;;;;;5086507;28;20394;-77
2024/01/31 10:38:44;;;;;;;7.35;6.03;;;6.20;40.00;;;;;;5082462;28;20403;-77
2024/01/31 10:41:12;;;;;;;8.68;6.75;;;6.20;40.70;;;;;;5076170;28;20487;-77
2024/01/31 10:43:40;;;;;;;8.55;6.90;;;6.30;34.80;;;;;;5084388;28;20419;-77
2024/01/31 10:46:05;;;;;;;8.63;7.00;;;6.30;40.00;;;;;;5085943;28;20398;-77
2024/01/31 10:48:31;;;;;;;9.27;7.10;;;6.30;43.00;;;;;;5082427;28;20398;-77
2024/01/31 10:50:58;;;;;;;9.07;7.00;;;6.40;36.70;;;;;;5084109;28;20394;-77
2024/01/31 10:53:26;;;;;;;7.85;6.82;;;6.40;37.10;;;;;;5082286;28;20399;-77
2024/01/31 10:55:53;;;;;;;9.68;7.30;;;6.50;39.30;;;;;;5084078;28;20472;-77
2024/01/31 10:58:21;;;;;;;8.95;6.88;;;6.50;37.20;;;;;;5082819;28;20532;-77
2024/01/31 11:00:47;;;;;;;9.48;7.13;;;6.50;36.50;;;;;;5083954;28;20433;-77
2024/01/31 11:03:15;;;;;;;7.53;6.55;;;6.60;36.50;;;;;;5070663;28;20432;-77
2024/01/31 11:05:41;;;;;;;8.98;7.20;;;6.60;35.90;;;;;;5085028;28;20421;-77
2024/01/31 11:08:39;;;;;;;8.60;7.15;;;6.60;36.40;;;;;;5081573;28;20409;-77
2024/01/31 11:11:09;;;;;;;7.85;6.43;;;6.70;37.80;;;;;;5064652;28;20422;-77
2024/01/31 11:13:35;;;;;;;8.98;6.72;;;6.70;37.40;;;;;;5084487;28;20398;-77
2024/01/31 11:16:01;;;;;;;7.80;6.38;;;6.70;35.60;;;;;;5080930;28;20425;-77
2024/01/31 11:18:29;;;;;;;8.55;6.47;;;6.80;38.30;;;;;;5083922;28;20394;-77
2024/01/31 11:20:56;;;;;;;8.48;6.50;;;6.80;31.60;;;;;;5082074;28;20507;-77
2024/01/31 11:23:23;;;;;;;7.10;6.07;;;6.80;33.40;;;;;;5078631;28;20908;-77
2024/01/31 11:25:51;;;;;;;8.23;6.30;;;6.90;35.40;;;;;;5087311;28;20429;-77
2024/01/31 11:28:18;;;;;;;7.95;6.38;;;6.80;31.10;;;;;;5088953;28;20790;-77
2024/01/31 11:30:51;;;;;;;7.47;5.95;;;6.90;30.70;;;;;;5087577;28;20911;-77
2024/01/31 11:33:17;;;;;;;8.20;6.22;;;6.90;33.30;;;;;;5088743;28;20394;-77
2024/01/31 11:35:43;;;;;;;8.85;5.80;;;6.90;30.50;;;;;;5087008;28;20398;-77
2024/01/31 11:38:09;;;;;;;7.65;5.57;;;6.90;28.40;;;;;;5088386;28;20423;-77
2024/01/31 11:40:35;;;;;;;8.02;6.10;;;6.90;28.70;;;;;;5085894;28;20434;-77
2024/01/31 11:43:03;;;;;;;7.78;5.88;;;6.90;27.10;;;;;;5088139;28;20445;-77
2024/01/31 11:45:28;;;;;;;7.63;5.43;;;6.90;26.70;;;;;;5085961;28;20413;-75
2024/01/31 11:47:55;;;;;;;8.13;5.70;;;7.00;29.50;;;;;;5088218;28;20775;-75
2024/01/31 11:50:22;;;;;;;7.15;5.65;;;7.00;27.10;;;;;;5084479;28;20489;-77
2024/01/31 11:52:48;;;;;;;7.20;5.45;;;7.00;26.10;;;;;;5087940;28;20915;-77
2024/01/31 11:55:23;;;;;;;6.03;4.85;;;7.00;26.40;;;;;;5083339;28;20395;-77
2024/01/31 11:57:52;;;;;;;6.45;5.13;;;7.00;25.60;;;;;;5086166;28;20408;-76
2024/01/31 12:00:18;;;;;;;6.75;4.70;;;7.00;24.70;;;;;;5080989;28;20517;-77
2024/01/31 12:02:44;;;;;;;7.80;5.10;;;7.00;24.30;;;;;;5085319;28;20485;-76
2024/01/31 12:05:10;;;;;;;7.03;4.87;;;7.00;26.60;;;;;;5084158;28;20443;-77
2024/01/31 12:07:36;;;;;;;6.60;4.57;;;7.00;28.50;;;;;;5084510;28;20389;-77
2024/01/31 12:10:03;;;;;;;5.85;4.32;;;7.10;28.30;;;;;;5083020;28;20408;-77
2024/01/31 12:12:30;;;;;;;5.90;4.45;;;7.10;27.00;;;;;;5083674;28;20479;-76
2024/01/31 12:14:55;;;;;;;6.43;4.20;;;7.10;25.00;;;;;;5083072;28;20421;-76
2024/01/31 12:17:25;;;;;;;5.93;4.50;;;7.00;26.80;;;;;;5083667;28;20883;-76
2024/01/31 12:20:04;;;;;;;5.43;3.90;;;7.00;26.40;;;;;;5083411;28;21688;-77
2024/01/31 12:22:31;;;;;;;6.28;4.07;;;7.00;24.90;;;;;;5074168;28;20415;-77
2024/01/31 12:24:56;;;;;;;5.53;3.97;;;7.00;25.60;;;;;;5088573;28;20398;-76
2024/01/31 12:27:22;;;;;;;5.97;4.40;;;7.00;26.10;;;;;;5086471;28;20419;-77
2024/01/31 12:29:48;;;;;;;6.80;4.30;;;6.90;25.80;;;;;;5088035;28;20398;-76
2024/01/31 12:32:14;;;;;;;5.90;3.67;;;6.90;24.80;;;;;;5085771;28;20432;-77
2024/01/31 12:34:39;;;;;;;6.00;4.70;;;6.90;24.40;;;;;;5088304;28;20398;-76
2024/01/31 12:37:05;;;;;;;6.63;4.70;;;6.90;24.90;;;;;;5086429;28;20574;-77
2024/01/31 12:39:35;;;;;;;5.30;4.50;;;6.90;25.90;;;;;;5087920;28;20406;-77
2024/01/31 12:42:01;;;;;;;5.43;4.53;;;6.90;27.40;;;;;;5086415;28;20947;-76
2024/01/31 12:44:27;;;;;;;5.00;4.37;;;7.00;27.60;;;;;;5087846;28;20390;-76
2024/01/31 12:46:53;;;;;;;6.53;4.73;;;7.00;27.40;;;;;;5074531;28;21002;-76
2024/01/31 12:49:19;;;;;;;5.22;4.40;;;6.90;27.00;;;;;;5087987;28;20959;-76
2024/01/31 12:51:44;;;;;;;5.78;4.40;;;6.90;27.90;;;;;;5085887;28;20391;-76